Time;durP1;ratioP1;P1;durP2;ratioP2;P2;SDS_P1;SDS_P2;PMS_P1;PMS_P2;Temp;Humidity;BMP_temperature;BMP_pressure;BME280_temperature;BME280_humidity;BME280_pressure;Samples;Min_cycle;Max_cycle;Signal;HPM_P1;HPM_P2
2021/10/29 00:01:57;;;;;;;23.33;14.27;;;9.10;99.90;;;;;;5035035;28;20075;-89
2021/10/29 00:04:23;;;;;;;23.63;15.18;;;9.10;99.90;;;;;;5033553;28;20062;-89
2021/10/29 00:06:48;;;;;;;23.00;14.13;;;9.10;99.90;;;;;;5046835;28;20024;-90
2021/10/29 00:09:14;;;;;;;24.77;14.57;;;9.10;99.90;;;;;;5036330;28;20034;-90
2021/10/29 00:11:39;;;;;;;24.52;14.73;;;9.20;99.90;;;;;;5035202;28;20032;-89
2021/10/29 00:14:05;;;;;;;24.92;14.07;;;9.20;99.90;;;;;;5043539;28;20037;-90
2021/10/29 00:16:30;;;;;;;23.23;14.45;;;9.20;99.90;;;;;;5048209;28;20044;-89
2021/10/29 00:18:56;;;;;;;21.13;13.43;;;9.30;99.90;;;;;;5038401;28;20035;-89
2021/10/29 00:21:21;;;;;;;22.35;13.65;;;9.20;99.90;;;;;;5034937;28;20063;-91
2021/10/29 00:23:47;;;;;;;20.40;14.00;;;9.30;99.90;;;;;;5046291;28;20037;-90
2021/10/29 00:26:13;;;;;;;22.20;13.32;;;9.30;99.90;;;;;;5034979;28;20025;-89
2021/10/29 00:28:38;;;;;;;24.25;14.05;;;9.30;99.90;;;;;;5037162;28;20025;-90
2021/10/29 00:31:04;;;;;;;23.55;13.82;;;9.30;99.90;;;;;;5034764;28;20546;-89
2021/10/29 00:33:29;;;;;;;20.60;13.75;;;9.30;99.90;;;;;;5051917;28;20037;-89
2021/10/29 00:35:55;;;;;;;21.33;13.02;;;9.30;99.90;;;;;;5035226;28;20066;-90
2021/10/29 00:38:20;;;;;;;21.33;13.77;;;9.30;99.90;;;;;;5034319;28;20150;-89
2021/10/29 00:40:46;;;;;;;19.63;12.68;;;9.30;99.90;;;;;;5035424;28;20036;-90
2021/10/29 00:43:12;;;;;;;19.35;12.10;;;9.30;99.90;;;;;;5034188;28;20092;-90
2021/10/29 00:45:38;;;;;;;17.63;12.38;;;9.30;99.90;;;;;;5032320;28;20021;-89
2021/10/29 00:48:03;;;;;;;20.13;12.75;;;9.30;99.90;;;;;;5036413;28;20048;-89
2021/10/29 00:50:30;;;;;;;17.83;11.48;;;9.30;99.90;;;;;;5036818;28;20021;-90
2021/10/29 00:52:56;;;;;;;21.08;13.25;;;9.40;99.90;;;;;;5035618;28;20071;-90
2021/10/29 00:55:22;;;;;;;19.65;12.80;;;9.30;99.90;;;;;;5034045;28;20049;-89
2021/10/29 00:57:50;;;;;;;22.30;12.95;;;9.40;99.90;;;;;;5034595;28;20112;-90
2021/10/29 01:00:17;;;;;;;18.73;12.38;;;9.40;99.90;;;;;;5031150;28;20034;-89
2021/10/29 01:02:42;;;;;;;18.77;11.77;;;9.30;99.90;;;;;;5044731;28;20060;-89
2021/10/29 01:05:08;;;;;;;20.80;11.93;;;9.40;99.90;;;;;;5034072;28;20029;-89
2021/10/29 01:07:34;;;;;;;17.73;11.65;;;9.30;99.90;;;;;;5031491;28;20393;-90
2021/10/29 01:10:03;;;;;;;20.20;12.80;;;9.40;99.90;;;;;;5033965;28;20041;-89
2021/10/29 01:12:28;;;;;;;21.55;12.65;;;9.40;99.90;;;;;;5036863;28;20145;-89
2021/10/29 01:14:59;;;;;;;19.90;12.80;;;9.40;99.90;;;;;;5035655;28;20423;-89
2021/10/29 01:17:26;;;;;;;19.58;12.20;;;9.30;99.90;;;;;;5035003;28;20033;-90
2021/10/29 01:19:53;;;;;;;26.60;13.43;;;9.30;99.90;;;;;;5053501;28;20029;-88
2021/10/29 01:22:20;;;;;;;21.48;12.98;;;9.30;99.90;;;;;;5036183;28;20029;-89
2021/10/29 01:24:46;;;;;;;16.67;11.57;;;9.30;99.90;;;;;;5022778;28;20398;-90
2021/10/29 01:27:14;;;;;;;21.45;12.15;;;9.30;99.90;;;;;;5037772;28;20017;-89
2021/10/29 01:29:40;;;;;;;16.75;11.13;;;9.30;99.90;;;;;;5054835;28;20116;-90
2021/10/29 01:32:08;;;;;;;18.02;10.65;;;9.40;99.90;;;;;;5055183;28;20021;-89
2021/10/29 01:34:35;;;;;;;19.10;11.30;;;9.30;99.90;;;;;;5057007;28;20041;-90
2021/10/29 01:37:04;;;;;;;19.58;12.13;;;9.40;99.90;;;;;;5056782;28;20538;-89
2021/10/29 01:39:39;;;;;;;22.77;11.82;;;9.40;99.90;;;;;;5042133;28;20029;-90
2021/10/29 01:42:05;;;;;;;18.52;11.48;;;9.40;99.90;;;;;;5037293;28;20021;-88
2021/10/29 01:44:34;;;;;;;17.83;12.13;;;9.40;99.90;;;;;;5045275;28;20039;-89
2021/10/29 01:47:00;;;;;;;17.70;11.65;;;9.40;99.90;;;;;;5054692;28;20086;-89
2021/10/29 01:49:26;;;;;;;16.25;11.55;;;9.40;99.90;;;;;;5038062;28;20552;-89
2021/10/29 01:51:51;;;;;;;18.08;10.93;;;9.40;99.90;;;;;;5037107;28;20079;-89
2021/10/29 01:54:17;;;;;;;15.43;10.40;;;9.50;99.90;;;;;;5055610;28;20039;-89
2021/10/29 01:56:44;;;;;;;19.55;11.73;;;9.50;99.90;;;;;;5039376;28;20025;-89
2021/10/29 01:59:09;;;;;;;18.05;11.57;;;9.50;99.90;;;;;;5036793;28;20119;-89
2021/10/29 02:01:35;;;;;;;18.75;11.60;;;9.50;99.90;;;;;;5054429;28;20076;-88
2021/10/29 02:04:00;;;;;;;16.98;10.73;;;9.50;99.90;;;;;;5041487;28;20040;-89
2021/10/29 02:06:26;;;;;;;13.98;10.32;;;9.60;99.90;;;;;;5054306;28;20021;-89
2021/10/29 02:08:51;;;;;;;20.17;10.77;;;9.50;99.90;;;;;;5045151;28;20171;-88
2021/10/29 02:11:17;;;;;;;16.15;10.68;;;9.60;99.90;;;;;;5037371;28;20029;-89
2021/10/29 02:13:43;;;;;;;16.27;10.35;;;9.60;99.90;;;;;;5034224;28;20044;-89
2021/10/29 02:16:09;;;;;;;19.25;11.55;;;9.60;99.90;;;;;;5044290;28;20028;-89
2021/10/29 02:18:34;;;;;;;16.40;10.52;;;9.70;99.90;;;;;;5055184;28;20473;-88
2021/10/29 02:21:00;;;;;;;18.58;11.10;;;9.70;99.90;;;;;;5054557;28;20401;-89
2021/10/29 02:23:26;;;;;;;17.23;9.98;;;9.70;99.90;;;;;;5038305;28;20086;-88
2021/10/29 02:25:52;;;;;;;16.27;10.10;;;9.70;99.90;;;;;;5036921;28;20021;-89
2021/10/29 02:28:19;;;;;;;18.65;10.57;;;9.70;99.90;;;;;;5053577;28;20032;-88
2021/10/29 02:30:46;;;;;;;16.17;10.20;;;9.70;99.90;;;;;;5063109;28;20032;-89
2021/10/29 02:33:13;;;;;;;15.85;10.30;;;9.80;99.90;;;;;;5063945;28;20040;-89
2021/10/29 02:35:39;;;;;;;16.17;9.77;;;9.90;99.90;;;;;;5037027;28;20021;-88
2021/10/29 02:38:08;;;;;;;15.55;10.38;;;9.90;99.90;;;;;;5051952;28;20120;-90
2021/10/29 02:40:34;;;;;;;17.08;9.40;;;9.90;99.90;;;;;;5052101;28;20025;-91
2021/10/29 02:43:06;;;;;;;13.57;8.90;;;9.90;99.90;;;;;;5036907;28;20028;-89
2021/10/29 02:45:32;;;;;;;16.05;9.63;;;9.90;99.90;;;;;;5049063;28;20032;-88
2021/10/29 02:47:57;;;;;;;15.98;9.85;;;9.80;99.90;;;;;;5036932;28;20141;-88
2021/10/29 02:50:24;;;;;;;16.25;9.60;;;9.80;99.90;;;;;;5036167;28;20033;-89
2021/10/29 02:52:50;;;;;;;14.68;9.27;;;9.80;99.90;;;;;;5038809;28;20423;-89
2021/10/29 02:55:16;;;;;;;12.82;8.70;;;9.80;99.90;;;;;;5037487;28;20028;-90
2021/10/29 02:57:42;;;;;;;17.65;9.38;;;9.80;99.90;;;;;;5036646;28;20622;-89
2021/10/29 03:00:11;;;;;;;16.13;9.40;;;9.70;99.90;;;;;;5032732;28;20070;-90
2021/10/29 03:02:37;;;;;;;17.92;9.15;;;9.70;99.90;;;;;;5036854;28;20057;-90
2021/10/29 03:05:05;;;;;;;17.13;9.73;;;9.70;99.90;;;;;;5035943;28;20108;-90
2021/10/29 03:07:30;;;;;;;15.68;10.00;;;9.80;99.90;;;;;;5026313;28;20623;-90
2021/10/29 03:10:07;;;;;;;15.00;9.32;;;9.70;99.90;;;;;;5035887;28;20041;-91
2021/10/29 03:12:34;;;;;;;15.48;10.10;;;9.80;99.90;;;;;;5053255;28;20029;-89
2021/10/29 03:14:59;;;;;;;15.98;9.30;;;9.70;99.90;;;;;;5036157;28;20040;-88
2021/10/29 03:17:25;;;;;;;15.27;9.13;;;9.70;99.90;;;;;;5035664;28;20017;-88
2021/10/29 03:19:50;;;;;;;18.20;9.30;;;9.70;99.90;;;;;;5035486;28;20099;-89
2021/10/29 03:22:16;;;;;;;13.80;9.55;;;9.60;99.90;;;;;;5035704;28;20036;-88
2021/10/29 03:24:42;;;;;;;17.35;10.35;;;9.60;99.90;;;;;;5035976;28;20036;-89
2021/10/29 03:27:08;;;;;;;15.65;10.02;;;9.60;99.90;;;;;;5036029;28;20021;-89
2021/10/29 03:29:33;;;;;;;20.83;10.85;;;9.60;99.90;;;;;;5035103;28;20105;-89
2021/10/29 03:31:59;;;;;;;14.80;9.80;;;9.50;99.90;;;;;;5034900;28;20021;-89
2021/10/29 03:34:25;;;;;;;18.83;10.15;;;9.50;99.90;;;;;;5035163;28;20035;-89
2021/10/29 03:36:50;;;;;;;15.05;9.75;;;9.50;99.90;;;;;;5035926;28;20425;-89
2021/10/29 03:41:53;;;;;;;15.88;9.95;;;9.50;99.90;;;;;;5053085;28;20077;-90
2021/10/29 03:47:03;;;;;;;18.52;10.30;;;9.40;99.90;;;;;;5051619;28;20028;-89
2021/10/29 03:49:33;;;;;;;18.83;9.73;;;9.40;99.90;;;;;;5031274;28;20029;-90
2021/10/29 03:52:13;;;;;;;14.80;9.57;;;9.30;99.90;;;;;;5029715;28;20495;-88
2021/10/29 03:54:39;;;;;;;17.23;9.65;;;9.30;99.90;;;;;;5053185;28;20033;-89
2021/10/29 03:57:23;;;;;;;15.98;9.70;;;9.30;99.90;;;;;;5045737;28;20021;-90
2021/10/29 03:59:49;;;;;;;21.15;10.15;;;9.30;99.90;;;;;;5037356;28;20029;-90
2021/10/29 04:02:14;;;;;;;16.25;9.93;;;9.30;99.90;;;;;;5052411;28;20095;-90
2021/10/29 04:04:40;;;;;;;16.13;9.88;;;9.30;99.90;;;;;;5034591;28;20047;-89
2021/10/29 04:07:07;;;;;;;16.35;9.73;;;9.30;99.90;;;;;;5045864;28;20420;-89
2021/10/29 04:09:32;;;;;;;15.48;8.68;;;9.30;99.90;;;;;;5034313;28;20078;-89
2021/10/29 04:11:58;;;;;;;14.48;9.60;;;9.30;99.90;;;;;;5026863;28;20120;-89
2021/10/29 04:14:27;;;;;;;13.05;9.23;;;9.30;99.90;;;;;;5034396;28;20048;-90
2021/10/29 04:16:54;;;;;;;19.02;10.02;;;9.30;99.90;;;;;;5034957;28;20434;-89
2021/10/29 04:19:19;;;;;;;15.07;9.57;;;9.30;99.90;;;;;;5044282;28;20037;-89
2021/10/29 04:21:45;;;;;;;12.20;8.68;;;9.30;99.90;;;;;;5042551;28;20507;-89
2021/10/29 04:24:11;;;;;;;15.73;9.77;;;9.30;99.90;;;;;;5051743;28;20032;-89
2021/10/29 04:26:38;;;;;;;17.05;10.02;;;9.40;99.90;;;;;;5035344;28;20025;-89
2021/10/29 04:29:13;;;;;;;17.85;9.32;;;9.30;99.90;;;;;;5038495;28;20027;-90
2021/10/29 04:31:48;;;;;;;17.60;9.77;;;9.40;99.90;;;;;;5036227;28;20028;-89
2021/10/29 04:34:14;;;;;;;13.70;9.45;;;9.30;99.90;;;;;;5052683;28;20060;-89
2021/10/29 04:36:40;;;;;;;16.17;8.75;;;9.40;99.90;;;;;;5033645;28;20509;-89
2021/10/29 04:39:11;;;;;;;13.43;8.60;;;9.40;99.90;;;;;;5036982;28;20029;-90
2021/10/29 04:41:38;;;;;;;14.25;9.32;;;9.40;99.90;;;;;;5035974;28;20554;-90
2021/10/29 04:44:06;;;;;;;15.15;9.23;;;9.30;99.90;;;;;;5043744;28;20036;-91
2021/10/29 04:46:32;;;;;;;16.45;9.75;;;9.40;99.90;;;;;;5043727;28;20548;-90
2021/10/29 04:48:58;;;;;;;15.18;9.48;;;9.30;99.90;;;;;;5035586;28;20036;-89
2021/10/29 04:51:24;;;;;;;15.23;9.07;;;9.30;99.90;;;;;;5026234;28;20030;-91
2021/10/29 04:53:50;;;;;;;17.38;9.88;;;9.30;99.90;;;;;;5041473;28;20040;-91
2021/10/29 04:56:15;;;;;;;14.77;9.90;;;9.30;99.90;;;;;;5039847;28;20074;-91
2021/10/29 04:58:41;;;;;;;15.48;9.60;;;9.30;99.90;;;;;;5030612;28;20108;-89
2021/10/29 05:01:07;;;;;;;14.43;9.70;;;9.20;99.90;;;;;;5056720;28;20045;-90
2021/10/29 05:03:32;;;;;;;17.00;10.23;;;9.30;99.90;;;;;;5027304;28;20468;-89
2021/10/29 05:05:58;;;;;;;17.52;9.50;;;9.30;99.90;;;;;;5049151;28;20025;-90
2021/10/29 05:08:24;;;;;;;15.73;9.25;;;9.20;99.90;;;;;;5056972;28;20055;-90
2021/10/29 05:10:50;;;;;;;14.88;9.82;;;9.20;99.90;;;;;;5056749;28;20502;-90
2021/10/29 05:13:16;;;;;;;17.75;10.02;;;9.20;99.90;;;;;;5037940;28;20045;-90
2021/10/29 05:15:42;;;;;;;15.63;9.23;;;9.20;99.90;;;;;;5055507;28;20029;-90
2021/10/29 05:18:13;;;;;;;18.30;10.02;;;9.20;99.90;;;;;;5028573;28;20037;-90
2021/10/29 05:20:38;;;;;;;13.70;9.05;;;9.20;99.90;;;;;;5038769;28;20029;-90
2021/10/29 05:23:04;;;;;;;13.57;9.60;;;9.20;99.90;;;;;;5037884;28;20082;-90
2021/10/29 05:25:30;;;;;;;11.32;8.32;;;9.20;99.90;;;;;;5038196;28;20120;-90
2021/10/29 05:27:55;;;;;;;17.02;9.68;;;9.20;99.90;;;;;;5024537;28;20056;-90
2021/10/29 05:30:21;;;;;;;14.88;8.73;;;9.20;99.90;;;;;;5035796;28;20070;-89
2021/10/29 05:32:46;;;;;;;16.20;9.27;;;9.20;99.90;;;;;;5037344;28;20408;-90
2021/10/29 05:35:12;;;;;;;15.20;10.45;;;9.20;99.90;;;;;;5054122;28;20595;-90
2021/10/29 05:37:38;;;;;;;18.10;10.32;;;9.10;99.90;;;;;;5037326;28;20495;-90
2021/10/29 05:40:05;;;;;;;15.85;9.65;;;9.10;99.90;;;;;;5041637;28;20805;-90
2021/10/29 05:42:31;;;;;;;15.48;8.85;;;9.10;99.90;;;;;;5035053;28;20028;-90
2021/10/29 05:44:56;;;;;;;15.77;10.60;;;9.10;99.90;;;;;;5019905;28;20037;-90
2021/10/29 05:47:22;;;;;;;15.50;9.63;;;9.10;99.90;;;;;;5030600;28;20032;-90
2021/10/29 05:49:48;;;;;;;14.93;9.75;;;9.10;99.90;;;;;;5023754;28;20097;-89
2021/10/29 05:52:21;;;;;;;21.90;10.10;;;9.10;99.90;;;;;;5053791;28;20979;-91
2021/10/29 05:55:12;;;;;;;17.48;10.18;;;9.10;99.90;;;;;;5040307;28;20041;-90
2021/10/29 05:57:38;;;;;;;14.65;9.85;;;9.10;99.90;;;;;;5034709;28;20516;-90
2021/10/29 06:00:05;;;;;;;13.57;9.77;;;9.10;99.90;;;;;;5039906;28;20028;-91
2021/10/29 06:02:30;;;;;;;15.55;10.27;;;9.10;99.90;;;;;;5056900;28;20124;-89
2021/10/29 06:04:56;;;;;;;17.67;10.18;;;9.10;99.90;;;;;;5056035;28;20017;-90
2021/10/29 06:07:22;;;;;;;14.43;8.93;;;9.10;99.90;;;;;;5035429;28;20079;-90
2021/10/29 06:09:47;;;;;;;17.95;11.40;;;9.10;99.90;;;;;;5039143;28;20063;-89
2021/10/29 06:12:13;;;;;;;14.77;9.30;;;9.10;99.90;;;;;;5039497;28;20119;-91
2021/10/29 06:14:39;;;;;;;14.98;9.23;;;9.10;99.90;;;;;;5039366;28;20076;-89
2021/10/29 06:17:07;;;;;;;14.27;9.55;;;9.10;99.90;;;;;;5039030;28;20032;-90
2021/10/29 06:19:33;;;;;;;13.55;9.55;;;9.20;99.90;;;;;;5040312;28;20082;-91
2021/10/29 06:24:34;;;;;;;15.55;9.57;;;9.20;99.90;;;;;;5055005;28;20033;-90
2021/10/29 06:27:03;;;;;;;16.92;10.35;;;9.20;99.90;;;;;;5038508;28;20472;-91
2021/10/29 06:29:29;;;;;;;13.68;9.00;;;9.30;99.90;;;;;;5046094;28;20469;-91
2021/10/29 06:31:55;;;;;;;15.25;8.52;;;9.30;99.90;;;;;;5056265;28;20035;-90
2021/10/29 06:34:21;;;;;;;15.02;9.70;;;9.30;99.90;;;;;;5039041;28;20043;-89
2021/10/29 06:36:47;;;;;;;14.77;9.73;;;9.40;99.90;;;;;;5038870;28;20155;-90
2021/10/29 06:39:12;;;;;;;14.50;10.05;;;9.40;99.90;;;;;;5047808;28;20033;-91
2021/10/29 06:41:44;;;;;;;17.02;10.00;;;9.40;99.90;;;;;;5034904;28;20021;-91
2021/10/29 06:44:22;;;;;;;14.93;9.70;;;9.40;99.90;;;;;;5053065;28;20032;-90
2021/10/29 06:47:33;;;;;;;16.15;9.52;;;9.50;99.90;;;;;;5037530;28;20021;-90
2021/10/29 07:00:25;;;;;;;19.88;9.90;;;9.50;99.90;;;;;;5052291;28;20693;-90
2021/10/29 07:40:47;;;;;;;21.15;9.57;;;10.00;99.90;;;;;;5053712;28;20125;-90
2021/10/29 07:43:22;;;;;;;16.27;10.35;;;10.10;99.90;;;;;;5045217;28;20036;-91
2021/10/29 07:45:48;;;;;;;15.20;10.25;;;10.10;99.90;;;;;;5035311;28;20497;-91
2021/10/29 07:48:14;;;;;;;13.85;8.88;;;10.20;99.90;;;;;;5036774;28;20116;-89
2021/10/29 07:50:39;;;;;;;18.80;10.18;;;10.20;99.90;;;;;;5052764;28;20049;-88
2021/10/29 07:53:05;;;;;;;19.55;9.73;;;10.30;99.90;;;;;;5035431;28;20068;-90
2021/10/29 07:55:31;;;;;;;13.52;9.23;;;10.30;99.90;;;;;;5046955;28;20036;-90
2021/10/29 07:58:02;;;;;;;17.30;10.07;;;10.40;99.90;;;;;;5035676;28;20032;-90
2021/10/29 08:00:28;;;;;;;13.05;9.15;;;10.40;99.90;;;;;;5027322;28;20036;-88
2021/10/29 08:02:55;;;;;;;15.77;9.55;;;10.50;99.90;;;;;;5036736;28;20079;-90
2021/10/29 08:05:27;;;;;;;14.75;9.68;;;10.70;99.90;;;;;;5037163;28;20439;-91
2021/10/29 08:07:54;;;;;;;14.43;9.70;;;10.70;99.90;;;;;;5036818;28;20417;-89
2021/10/29 08:10:20;;;;;;;15.15;10.38;;;10.80;99.90;;;;;;5034089;28;20033;-91
2021/10/29 08:12:45;;;;;;;14.73;9.40;;;10.90;99.90;;;;;;5035259;28;20056;-89
2021/10/29 08:15:11;;;;;;;12.57;8.93;;;11.00;99.90;;;;;;5036543;28;20064;-90
2021/10/29 08:17:37;;;;;;;14.75;8.52;;;11.10;99.90;;;;;;5042119;28;20032;-89
2021/10/29 08:20:05;;;;;;;14.55;9.40;;;11.20;99.90;;;;;;5041250;28;20053;-89
2021/10/29 08:22:32;;;;;;;15.43;9.10;;;11.30;99.90;;;;;;5038310;28;20021;-89
2021/10/29 08:24:58;;;;;;;12.30;9.15;;;11.40;99.90;;;;;;5035203;28;20025;-89
2021/10/29 08:27:24;;;;;;;15.25;8.57;;;11.50;99.90;;;;;;5049652;28;20035;-88
2021/10/29 08:29:50;;;;;;;14.52;8.73;;;11.60;99.90;;;;;;5051467;28;20017;-90
2021/10/29 08:32:15;;;;;;;14.95;8.40;;;11.80;99.90;;;;;;5046576;28;20489;-89
2021/10/29 08:34:41;;;;;;;10.73;8.48;;;11.90;99.90;;;;;;5032856;28;20108;-90
2021/10/29 08:37:08;;;;;;;11.43;7.82;;;12.00;99.90;;;;;;5043856;28;20917;-89
2021/10/29 08:39:35;;;;;;;15.88;8.85;;;12.20;99.90;;;;;;5040266;28;20028;-89
2021/10/29 08:42:01;;;;;;;11.82;7.82;;;12.30;99.90;;;;;;5043044;28;20020;-88
2021/10/29 08:44:29;;;;;;;10.90;7.60;;;12.40;99.90;;;;;;5020697;28;20055;-89
2021/10/29 08:46:55;;;;;;;11.90;7.97;;;12.50;99.90;;;;;;5044205;28;20037;-89
2021/10/29 08:49:21;;;;;;;12.82;7.70;;;12.70;99.90;;;;;;5039632;28;20486;-89
2021/10/29 08:51:48;;;;;;;10.32;6.97;;;12.70;99.90;;;;;;5046887;28;20026;-88
2021/10/29 08:54:14;;;;;;;11.23;7.93;;;12.80;99.90;;;;;;5047696;28;20048;-90
2021/10/29 08:56:40;;;;;;;13.13;7.63;;;12.70;99.90;;;;;;5037758;28;20028;-90
2021/10/29 08:59:14;;;;;;;13.68;7.68;;;12.80;99.90;;;;;;5037639;28;20031;-90
2021/10/29 09:01:49;;;;;;;12.30;7.60;;;12.80;99.90;;;;;;5035091;28;20564;-90
2021/10/29 09:04:20;;;;;;;13.52;8.40;;;12.90;99.90;;;;;;5035085;28;20105;-89
2021/10/29 09:06:59;;;;;;;13.27;7.07;;;12.90;99.90;;;;;;5053934;28;20032;-90
2021/10/29 09:31:35;;;;;;;9.63;6.13;;;13.90;99.30;;;;;;5033713;28;20044;-91
2021/10/29 09:34:05;;;;;;;11.00;6.03;;;14.00;98.80;;;;;;5022639;28;20463;-90
2021/10/29 09:36:42;;;;;;;8.00;5.50;;;14.10;98.70;;;;;;5035984;28;20039;-89
2021/10/29 09:39:11;;;;;;;7.72;5.22;;;14.20;98.50;;;;;;5031796;28;20501;-90
2021/10/29 09:41:39;;;;;;;8.02;5.20;;;14.20;97.80;;;;;;5038505;28;20037;-92
2021/10/29 09:44:17;;;;;;;9.82;5.47;;;14.30;97.50;;;;;;5036449;28;20051;-90
2021/10/29 09:46:56;;;;;;;10.88;5.78;;;14.40;97.60;;;;;;5047754;28;20033;-91
2021/10/29 09:49:51;;;;;;;7.28;5.07;;;14.50;97.30;;;;;;5053458;28;20059;-90
2021/10/29 09:55:35;;;;;;;7.22;4.65;;;14.60;96.90;;;;;;5057839;28;20060;-90
2021/10/29 09:57:35;;;;;;;7.93;4.93;;;14.70;96.70;;;;;;5050838;28;20046;-90
2021/10/29 10:00:06;;;;;;;13.05;5.43;;;14.80;96.30;;;;;;5037555;28;20051;-89
2021/10/29 10:02:32;;;;;;;12.52;5.50;;;14.80;96.20;;;;;;5037268;28;20074;-88
2021/10/29 10:05:00;;;;;;;8.88;4.90;;;14.90;96.00;;;;;;5057201;28;20108;-88
2021/10/29 10:07:31;;;;;;;7.38;4.47;;;14.90;95.70;;;;;;5039367;28;20021;-89
2021/10/29 10:09:58;;;;;;;8.47;4.90;;;15.00;95.70;;;;;;5037305;28;20051;-89
2021/10/29 10:12:27;;;;;;;9.80;4.40;;;15.00;95.50;;;;;;5043771;28;20051;-91
2021/10/29 10:14:58;;;;;;;7.22;4.60;;;15.10;95.60;;;;;;5057496;28;20396;-89
2021/10/29 10:17:25;;;;;;;8.47;4.53;;;15.10;95.30;;;;;;5047366;28;20542;-90
2021/10/29 10:19:51;;;;;;;9.30;4.55;;;15.10;94.80;;;;;;5036613;28;20412;-90
2021/10/29 10:22:19;;;;;;;8.40;4.45;;;15.10;94.70;;;;;;5053846;28;20033;-90
2021/10/29 10:24:54;;;;;;;8.32;5.18;;;15.20;94.30;;;;;;5057412;28;20498;-89
2021/10/29 10:27:34;;;;;;;13.23;5.53;;;15.20;94.50;;;;;;5060351;28;20029;-90
2021/10/29 10:43:34;;;;;;;8.65;4.50;;;15.70;94.00;;;;;;5054010;28;20025;-90
2021/10/29 10:48:43;;;;;;;8.70;4.28;;;15.90;94.10;;;;;;5042136;28;20119;-90
2021/10/29 10:54:11;;;;;;;9.70;4.50;;;16.10;93.50;;;;;;5056865;28;20045;-89
2021/10/29 10:59:57;;;;;;;7.40;3.90;;;16.20;92.80;;;;;;5057351;28;20048;-90
2021/10/29 11:05:39;;;;;;;7.88;3.83;;;16.40;92.50;;;;;;5025174;28;20021;-91
2021/10/29 11:10:57;;;;;;;7.30;3.92;;;16.50;92.40;;;;;;5036552;28;20093;-95
2021/10/29 11:13:26;;;;;;;6.63;3.70;;;16.70;92.60;;;;;;5039718;28;20037;-93
2021/10/29 11:15:59;;;;;;;6.13;3.53;;;16.90;92.10;;;;;;5038666;28;20025;-90
2021/10/29 11:18:33;;;;;;;6.07;3.92;;;17.00;91.50;;;;;;5034231;28;20097;-95
2021/10/29 11:21:21;;;;;;;8.10;4.25;;;17.00;91.40;;;;;;5036459;28;20025;-94
2021/10/29 11:23:56;;;;;;;5.80;4.15;;;17.00;91.20;;;;;;5031734;28;20049;-94
2021/10/29 11:26:25;;;;;;;8.48;4.35;;;17.00;91.30;;;;;;5033865;28;20040;-91
2021/10/29 11:28:54;;;;;;;7.25;3.30;;;17.10;91.10;;;;;;5032979;28;20064;-91
2021/10/29 11:31:26;;;;;;;6.15;3.80;;;17.20;90.90;;;;;;5034516;28;20075;-91
2021/10/29 11:33:55;;;;;;;8.63;3.78;;;17.20;91.10;;;;;;5030907;28;20037;-91
2021/10/29 11:36:32;;;;;;;6.38;3.97;;;17.20;91.10;;;;;;5034391;28;20028;-91
2021/10/29 11:38:58;;;;;;;7.45;4.10;;;17.20;91.30;;;;;;5035469;28;20029;-91
2021/10/29 11:41:31;;;;;;;5.45;3.75;;;17.20;90.90;;;;;;5033787;28;20021;-92
2021/10/29 11:44:13;;;;;;;6.70;4.72;;;17.20;90.90;;;;;;5032672;28;20029;-91
2021/10/29 11:46:41;;;;;;;5.70;4.27;;;17.20;91.30;;;;;;5032176;28;20029;-92
2021/10/29 11:49:29;;;;;;;5.60;3.85;;;17.10;91.30;;;;;;5041645;28;20056;-91
2021/10/29 11:52:03;;;;;;;10.30;5.57;;;17.10;91.20;;;;;;5032745;28;20021;-92
2021/10/29 11:54:32;;;;;;;8.55;5.00;;;17.00;91.30;;;;;;5029785;28;20033;-92
2021/10/29 11:57:53;;;;;;;11.57;4.88;;;17.00;91.60;;;;;;5031229;28;20107;-91
2021/10/29 12:00:13;;;;;;;8.32;4.60;;;17.00;91.70;;;;;;5026509;28;20041;-91
2021/10/29 12:08:20;;;;;;;8.15;4.07;;;17.10;91.60;;;;;;5029268;28;20048;-92
2021/10/29 12:10:48;;;;;;;4.93;3.70;;;17.10;91.80;;;;;;5044066;28;20025;-91
2021/10/29 12:13:13;;;;;;;11.18;4.68;;;17.20;91.50;;;;;;5034364;28;20037;-90
2021/10/29 12:15:39;;;;;;;7.57;4.97;;;17.20;91.40;;;;;;5033999;28;20466;-91
2021/10/29 12:18:08;;;;;;;6.88;4.13;;;17.20;91.50;;;;;;5033587;28;20104;-91
2021/10/29 12:20:45;;;;;;;7.68;4.20;;;17.30;91.50;;;;;;5024395;28;20030;-91
2021/10/29 12:23:29;;;;;;;8.10;4.18;;;17.30;91.40;;;;;;5033007;28;20540;-92
2021/10/29 12:25:59;;;;;;;10.35;4.30;;;17.30;91.40;;;;;;5037403;28;20044;-91
2021/10/29 13:03:59;;;;;;;5.63;3.38;;;17.80;91.10;;;;;;5053424;28;20453;-93
2021/10/29 13:06:55;;;;;;;6.32;3.45;;;17.80;90.90;;;;;;5047170;28;20070;-91
2021/10/29 13:09:25;;;;;;;6.95;3.60;;;17.90;90.70;;;;;;5048589;28;20025;-91
2021/10/29 13:12:00;;;;;;;8.38;3.35;;;17.90;90.70;;;;;;5053506;28;20021;-91
2021/10/29 13:16:54;;;;;;;7.60;4.47;;;18.00;90.70;;;;;;5057677;28;20079;-92
2021/10/29 13:24:51;;;;;;;;;;;18.00;90.60;;;;;;5058596;28;20063;-92
2021/10/29 14:02:03;;;;;;;10.77;5.20;;;17.90;91.20;;;;;;5055144;28;20112;-92
2021/10/29 14:29:21;;;;;;;3.80;1.02;;;18.60;87.50;;;;;;5052974;28;20039;-91
2021/10/29 14:34:18;;;;;;;7.47;1.17;;;18.60;87.40;;;;;;5055701;28;20058;-91
2021/10/29 14:36:59;;;;;;;4.93;0.93;;;18.60;87.10;;;;;;5038845;28;20029;-92
2021/10/29 14:39:38;;;;;;;3.72;1.05;;;18.60;86.90;;;;;;5038284;28;20052;-91
2021/10/29 14:44:40;;;;;;;6.03;1.63;;;18.50;86.00;;;;;;5055598;28;20025;-91
2021/10/29 14:50:24;;;;;;;6.07;1.10;;;18.30;86.40;;;;;;5055793;28;20032;-91
2021/10/29 14:53:10;;;;;;;2.95;1.17;;;18.10;86.50;;;;;;5053888;28;20048;-90
2021/10/29 15:30:25;;;;;;;5.25;0.95;;;17.60;87.70;;;;;;5053009;28;20068;-91
2021/10/29 15:46:06;;;;;;;2.90;1.00;;;17.30;89.20;;;;;;5055944;28;20025;-92
2021/10/29 15:48:41;;;;;;;3.78;0.98;;;17.30;89.40;;;;;;5051943;28;20381;-90
2021/10/29 15:51:07;;;;;;;5.65;0.73;;;17.30;89.70;;;;;;5035283;28;20032;-91
2021/10/29 15:53:32;;;;;;;3.17;0.90;;;17.30;89.70;;;;;;5054126;28;20043;-91
2021/10/29 15:56:05;;;;;;;3.63;0.95;;;17.30;89.80;;;;;;5038121;28;20074;-91
2021/10/29 15:58:36;;;;;;;3.08;1.00;;;17.30;90.00;;;;;;5054356;28;20083;-92
2021/10/29 16:17:11;;;;;;;4.72;0.90;;;17.30;90.20;;;;;;5052064;28;20079;-93
2021/10/29 16:19:38;;;;;;;4.35;0.90;;;17.30;90.70;;;;;;5035203;28;20025;-94
2021/10/29 16:25:08;;;;;;;3.25;1.20;;;17.00;92.20;;;;;;4998922;28;20063;-95
2021/10/29 16:27:44;;;;;;;3.38;1.10;;;16.70;93.10;;;;;;5034393;28;20108;-95
2021/10/29 16:30:10;;;;;;;4.85;1.38;;;16.50;93.80;;;;;;5041373;28;20036;-94
2021/10/29 16:32:51;;;;;;;3.45;1.25;;;16.40;94.50;;;;;;5039700;28;20483;-94
2021/10/29 16:35:18;;;;;;;2.55;1.00;;;16.20;95.30;;;;;;5034696;28;20040;-93
2021/10/29 16:37:52;;;;;;;4.20;1.20;;;16.10;96.30;;;;;;5040452;28;20614;-96
2021/10/29 16:40:19;;;;;;;6.65;1.73;;;15.90;96.70;;;;;;5035433;28;20037;-95
2021/10/29 16:43:14;;;;;;;3.53;1.52;;;15.80;97.30;;;;;;5039667;28;20067;-93
2021/10/29 16:45:47;;;;;;;8.55;2.17;;;15.70;97.70;;;;;;5036319;28;20029;-95
2021/10/29 16:48:19;;;;;;;;;;;15.60;98.30;;;;;;5036999;28;20025;-94
2021/10/29 16:50:46;;;;;;;5.43;1.80;;;15.50;98.30;;;;;;5040544;28;19917;-95
2021/10/29 16:53:12;;;;;;;4.65;1.90;;;15.30;98.80;;;;;;5043983;28;20029;-95
2021/10/29 16:55:40;;;;;;;2.75;1.75;;;15.30;99.30;;;;;;5046243;28;20033;-93
2021/10/29 16:58:06;;;;;;;3.00;2.05;;;15.20;99.60;;;;;;5042921;28;20051;-93
2021/10/29 17:00:32;;;;;;;6.72;2.08;;;15.20;99.90;;;;;;5041195;28;20442;-95
2021/10/29 17:02:58;;;;;;;4.82;2.10;;;15.10;99.90;;;;;;5062396;28;20536;-93
2021/10/29 17:05:24;;;;;;;4.47;1.80;;;15.00;99.90;;;;;;5036458;28;20099;-93
2021/10/29 17:07:50;;;;;;;5.25;1.92;;;15.00;99.90;;;;;;5042018;28;20456;-94
2021/10/29 17:10:21;;;;;;;4.38;2.13;;;15.00;99.90;;;;;;5049766;28;20035;-95
2021/10/29 17:12:47;;;;;;;7.68;2.42;;;14.90;99.90;;;;;;5038201;28;20029;-93
2021/10/29 17:15:16;;;;;;;4.22;2.42;;;14.80;99.90;;;;;;5038297;28;20037;-92
2021/10/29 17:17:43;;;;;;;4.97;2.47;;;14.80;99.90;;;;;;5030413;28;20021;-94
2021/10/29 17:20:10;;;;;;;5.35;2.63;;;14.70;99.90;;;;;;5052336;28;20689;-94
2021/10/29 17:22:39;;;;;;;5.90;2.28;;;14.60;99.90;;;;;;5036380;28;20021;-94
2021/10/29 17:25:06;;;;;;;3.85;1.88;;;14.60;99.90;;;;;;5035918;28;20056;-93
2021/10/29 17:27:32;;;;;;;5.90;2.40;;;14.60;99.90;;;;;;5034726;28;20476;-93
2021/10/29 17:29:57;;;;;;;4.80;1.77;;;14.50;99.90;;;;;;5041195;28;20021;-93
2021/10/29 17:32:23;;;;;;;4.72;1.52;;;14.50;99.90;;;;;;5036635;28;20032;-91
2021/10/29 17:34:49;;;;;;;4.75;1.70;;;14.40;99.90;;;;;;5034487;28;20045;-92
2021/10/29 17:37:16;;;;;;;4.40;1.60;;;14.40;99.90;;;;;;5038704;28;20021;-94
2021/10/29 17:39:43;;;;;;;4.43;1.50;;;14.40;99.90;;;;;;5034327;28;20044;-94
2021/10/29 17:42:11;;;;;;;2.60;1.20;;;14.30;99.90;;;;;;5041577;28;20086;-95
2021/10/29 17:44:37;;;;;;;3.47;1.10;;;14.30;99.90;;;;;;5040797;28;20051;-94